Time;durP1;ratioP1;P1;durP2;ratioP2;P2;SDS_P1;SDS_P2;PMS_P1;PMS_P2;Temp;Humidity;BMP_temperature;BMP_pressure;BME280_temperature;BME280_humidity;BME280_pressure;Samples;Min_cycle;Max_cycle;Signal;HPM_P1;HPM_P2
2021/04/22 00:01:25;;;;;;;;;;;;;;;3.40;89.00;99584.03;4897016;29;19919;-78
2021/04/22 00:03:51;;;;;;;;;;;;;;;3.44;88.04;99570.44;4892746;29;19970;-78
2021/04/22 00:06:16;;;;;;;;;;;;;;;3.41;88.07;99572.97;4914270;29;19915;-78
2021/04/22 00:08:41;;;;;;;;;;;;;;;3.53;86.91;99579.84;4882597;29;19915;-79
2021/04/22 00:11:07;;;;;;;;;;;;;;;3.46;86.82;99567.91;4895916;29;20013;-79
2021/04/22 00:13:33;;;;;;;;;;;;;;;3.37;87.18;99572.94;4901376;29;20604;-79
2021/04/22 00:16:00;;;;;;;;;;;;;;;3.38;86.98;99574.69;4892588;29;20006;-79
2021/04/22 00:18:25;;;;;;;;;;;;;;;3.37;86.63;99570.41;4910255;29;19915;-79
2021/04/22 00:20:50;;;;;;;;;;;;;;;3.35;85.78;99573.81;4909047;29;19977;-78
2021/04/22 00:23:16;;;;;;;;;;;;;;;3.51;85.54;99568.78;4905449;29;20009;-77
2021/04/22 00:25:41;;;;;;;;;;;;;;;3.42;85.59;99571.28;4897995;29;19915;-76
2021/04/22 00:28:07;;;;;;;;;;;;;;;3.25;85.70;99574.56;4908920;29;20233;-78
2021/04/22 00:30:33;;;;;;;;;;;;;;;3.34;86.62;99574.63;4881107;29;19915;-78
2021/04/22 00:32:58;;;;;;;;;;;;;;;3.17;85.75;99571.16;4912039;29;19915;-78
2021/04/22 00:35:24;;;;;;;;;;;;;;;3.09;86.64;99582.94;4895803;29;19923;-78
2021/04/22 00:37:49;;;;;;;;;;;;;;;3.03;87.59;99582.88;4908615;29;20392;-78
2021/04/22 00:40:16;;;;;;;;;;;;;;;2.99;87.62;99587.13;4879323;29;19919;-77
2021/04/22 00:42:41;;;;;;;;;;;;;;;2.78;88.31;99592.00;4895851;29;19921;-78
2021/04/22 00:45:07;;;;;;;;;;;;;;;2.82;88.14;99589.50;4909381;29;20359;-78
2021/04/22 00:47:32;;;;;;;;;;;;;;;3.03;88.39;99582.88;4894679;29;19920;-78
2021/04/22 00:49:58;;;;;;;;;;;;;;;3.23;86.21;99586.44;4909950;29;19929;-78
2021/04/22 00:52:23;;;;;;;;;;;;;;;2.93;87.53;99582.81;4883861;29;20471;-77
2021/04/22 00:54:49;;;;;;;;;;;;;;;3.02;87.01;99586.28;4923014;29;20452;-78
2021/04/22 00:57:14;;;;;;;;;;;;;;;2.98;86.50;99580.31;4910099;29;19919;-78
2021/04/22 00:59:39;;;;;;;;;;;;;;;2.69;88.49;99585.16;4894428;29;20296;-78
2021/04/22 01:02:06;;;;;;;;;;;;;;;2.54;89.28;99592.66;4911891;29;20388;-78
2021/04/22 01:04:32;;;;;;;;;;;;;;;2.44;90.31;99584.06;4907747;29;19970;-77
2021/04/22 01:06:57;;;;;;;;;;;;;;;2.58;89.94;99591.81;4895755;29;20010;-78
2021/04/22 01:09:22;;;;;;;;;;;;;;;2.69;89.35;99592.78;4929193;29;19927;-78
2021/04/22 01:11:48;;;;;;;;;;;;;;;2.51;90.41;99594.31;4879669;29;20252;-78
2021/04/22 01:14:13;;;;;;;;;;;;;;;2.55;90.36;99586.72;4888816;29;20393;-79
2021/04/22 01:16:38;;;;;;;;;;;;;;;2.49;90.18;99584.97;4921582;29;19994;-78
2021/04/22 01:19:05;;;;;;;;;;;;;;;2.61;90.07;99594.41;4888577;29;19962;-78
2021/04/22 01:21:30;;;;;;;;;;;;;;;2.49;90.67;99592.59;4888856;29;19919;-77
2021/04/22 01:23:55;;;;;;;;;;;;;;;2.40;91.58;99595.91;4901754;29;19974;-78
2021/04/22 01:26:21;;;;;;;;;;;;;;;2.35;91.52;99600.09;4878033;29;19919;-78
2021/04/22 01:28:47;;;;;;;;;;;;;;;2.34;91.93;99598.38;4922165;29;19919;-78
2021/04/22 01:31:12;;;;;;;;;;;;;;;2.14;92.90;99602.38;4886898;29;19919;-78
2021/04/22 01:33:38;;;;;;;;;;;;;;;2.00;94.29;99605.59;4903451;29;19919;-78
2021/04/22 01:36:03;;;;;;;;;;;;;;;2.01;94.74;99602.25;4888286;29;19993;-78
2021/04/22 01:38:29;;;;;;;;;;;;;;;2.04;94.57;99612.44;4912214;29;20370;-79
2021/04/22 01:40:54;;;;;;;;;;;;;;;2.08;94.01;99614.19;4921890;29;19919;-79
2021/04/22 01:43:20;;;;;;;;;;;;;;;2.13;93.44;99615.91;4898370;29;20344;-79
2021/04/22 01:45:45;;;;;;;;;;;;;;;2.08;93.25;99614.19;4907109;29;20474;-79
2021/04/22 01:48:11;;;;;;;;;;;;;;;2.01;93.67;99614.94;4892932;29;20308;-80
2021/04/22 01:50:36;;;;;;;;;;;;;;;2.05;93.67;99619.22;4890203;29;19937;-79
2021/04/22 01:53:02;;;;;;;;;;;;;;;1.94;94.09;99619.91;4890651;29;19915;-78
2021/04/22 01:55:31;;;;;;;;;;;;;;;2.01;94.27;99616.63;4903831;29;19942;-79
2021/04/22 01:57:56;;;;;;;;;;;;;;;2.04;93.91;99622.59;4891032;29;19923;-78
2021/04/22 02:00:42;;;;;;;;;;;;;;;2.18;93.32;99619.38;4902851;29;19915;-78
2021/04/22 02:03:08;;;;;;;;;;;;;;;2.22;92.37;99628.72;4917643;29;19926;-76
2021/04/22 02:05:34;;;;;;;;;;;;;;;2.20;92.51;99620.25;4891569;29;19919;-78
2021/04/22 02:07:59;;;;;;;;;;;;;;;2.09;92.90;99631.09;4889340;29;20295;-78
2021/04/22 02:10:24;;;;;;;;;;;;;;;2.03;93.66;99631.06;4888333;29;19919;-79
2021/04/22 02:12:50;;;;;;;;;;;;;;;2.00;94.28;99636.06;4887227;29;19922;-78
2021/04/22 02:15:17;;;;;;;;;;;;;;;1.97;94.46;99636.03;4881132;29;20001;-79
2021/04/22 02:17:43;;;;;;;;;;;;;;;1.94;94.99;99625.84;4891032;29;19930;-78
2021/04/22 02:20:09;;;;;;;;;;;;;;;1.87;95.77;99636.75;4912688;29;20296;-78
2021/04/22 02:22:35;;;;;;;;;;;;;;;1.84;96.42;99639.25;4903726;29;19918;-79
2021/04/22 02:25:00;;;;;;;;;;;;;;;1.74;97.13;99647.59;4874631;29;20938;-78
2021/04/22 02:27:25;;;;;;;;;;;;;;;1.84;96.72;99644.34;4915786;29;20281;-77
2021/04/22 02:29:51;;;;;;;;;;;;;;;1.82;97.12;99640.91;4920003;29;19919;-78
2021/04/22 02:32:16;;;;;;;;;;;;;;;1.73;97.47;99635.72;4899980;29;20010;-76
2021/04/22 02:34:41;;;;;;;;;;;;;;;1.76;97.87;99636.63;4901887;29;19938;-76
2021/04/22 02:37:07;;;;;;;;;;;;;;;1.76;97.92;99635.78;4921137;29;19990;-78
2021/04/22 02:39:32;;;;;;;;;;;;;;;1.74;98.27;99639.97;4888750;29;19925;-78
2021/04/22 02:41:57;;;;;;;;;;;;;;;1.75;97.97;99634.06;4902451;29;19918;-78
2021/04/22 02:44:22;;;;;;;;;;;;;;;1.72;98.01;99646.72;4920329;29;19950;-78
2021/04/22 02:46:48;;;;;;;;;;;;;;;1.82;97.51;99640.91;4887112;29;20318;-77
2021/04/22 02:49:13;;;;;;;;;;;;;;;1.70;98.05;99643.31;4887785;29;20432;-78
2021/04/22 02:51:38;;;;;;;;;;;;;;;1.73;98.32;99645.88;4889762;29;20534;-77
2021/04/22 02:54:04;;;;;;;;;;;;;;;1.84;97.90;99649.41;4883912;29;19923;-77
2021/04/22 02:56:29;;;;;;;;;;;;;;;2.27;95.28;99652.50;4897005;29;19930;-76
2021/04/22 02:58:55;;;;;;;;;;;;;;;2.58;93.57;99640.13;4900355;29;20006;-77
2021/04/22 03:01:20;;;;;;;;;;;;;;;2.38;94.03;99653.50;4888794;29;19925;-76
2021/04/22 03:03:45;;;;;;;;;;;;;;;2.39;93.45;99650.09;4870705;29;20416;-77
2021/04/22 03:06:11;;;;;;;;;;;;;;;2.53;92.70;99644.31;4886034;29;19958;-78
2021/04/22 03:08:36;;;;;;;;;;;;;;;2.64;91.10;99637.66;4870920;29;19933;-77
2021/04/22 03:11:02;;;;;;;;;;;;;;;2.59;91.12;99640.16;4876849;29;19961;-76
2021/04/22 03:13:28;;;;;;;;;;;;;;;2.76;91.27;99640.34;4909716;29;19919;-76
2021/04/22 03:15:53;;;;;;;;;;;;;;;2.61;91.01;99645.25;4879385;29;19930;-77
2021/04/22 03:18:20;;;;;;;;;;;;;;;2.30;93.81;99647.44;4909675;29;20835;-78
2021/04/22 03:20:46;;;;;;;;;;;;;;;2.02;95.25;99643.72;4909226;29;19919;-76
2021/04/22 03:23:12;;;;;;;;;;;;;;;1.99;96.09;99649.63;4907705;29;19929;-78
2021/04/22 03:25:39;;;;;;;;;;;;;;;1.99;96.19;99647.09;4907381;29;20668;-77
2021/04/22 03:28:05;;;;;;;;;;;;;;;1.87;97.04;99646.91;4897286;29;20281;-78
2021/04/22 03:30:30;;;;;;;;;;;;;;;1.90;97.35;99649.50;4906686;29;19955;-78
2021/04/22 03:32:56;;;;;;;;;;;;;;;1.93;97.54;99649.53;4907401;29;20354;-78
2021/04/22 03:35:22;;;;;;;;;;;;;;;1.84;98.52;99651.94;4878406;29;19969;-78
2021/04/22 03:37:47;;;;;;;;;;;;;;;1.57;100.00;99665.09;4891824;29;19930;-78
2021/04/22 03:40:13;;;;;;;;;;;;;;;1.63;100.00;99655.91;4904931;29;19923;-78
2021/04/22 03:42:38;;;;;;;;;;;;;;;1.50;100.00;99650.63;4901848;29;19919;-75
2021/04/22 03:45:05;;;;;;;;;;;;;;;1.36;100.00;99660.56;4886003;29;19919;-78
2021/04/22 03:47:30;;;;;;;;;;;;;;;1.36;100.00;99660.56;4918727;29;19927;-78
2021/04/22 03:49:56;;;;;;;;;;;;;;;1.46;100.00;99657.34;4903487;29;19950;-77
2021/04/22 03:52:21;;;;;;;;;;;;;;;1.48;100.00;99658.19;4872091;29;19971;-77
2021/04/22 03:54:46;;;;;;;;;;;;;;;1.38;100.00;99657.22;4883635;29;19935;-76
2021/04/22 03:57:12;;;;;;;;;;;;;;;1.44;100.00;99653.94;4918589;29;19930;-77
2021/04/22 03:59:37;;;;;;;;;;;;;;;1.48;100.00;99657.34;4874885;29;20285;-77
2021/04/22 04:02:03;;;;;;;;;;;;;;;1.55;100.00;99657.50;4902453;29;19955;-78
2021/04/22 04:04:28;;;;;;;;;;;;;;;1.53;100.00;99658.28;4885451;29;19919;-78
2021/04/22 04:06:53;;;;;;;;;;;;;;;1.45;100.00;99660.69;4901533;29;19919;-77
2021/04/22 04:09:19;;;;;;;;;;;;;;;1.42;100.00;99653.91;4903572;29;19970;-78
2021/04/22 04:11:44;;;;;;;;;;;;;;;1.35;100.00;99663.94;4902682;29;19950;-79
2021/04/22 04:14:10;;;;;;;;;;;;;;;1.46;100.00;99662.44;4925452;29;19936;-83
2021/04/22 04:16:35;;;;;;;;;;;;;;;1.49;100.00;99662.47;4885390;29;19923;-83
2021/04/22 04:19:01;;;;;;;;;;;;;;;1.49;100.00;99659.94;4872745;29;19919;-83
2021/04/22 04:21:26;;;;;;;;;;;;;;;1.44;100.00;99669.16;4873118;29;19923;-83
2021/04/22 04:23:52;;;;;;;;;;;;;;;1.60;100.00;99660.94;4887937;29;19923;-83
2021/04/22 04:26:17;;;;;;;;;;;;;;;1.63;100.00;99672.81;4895162;29;20388;-82
2021/04/22 04:28:43;;;;;;;;;;;;;;;1.73;100.00;99677.19;4900179;29;19923;-83
2021/04/22 04:31:08;;;;;;;;;;;;;;;1.84;100.00;99669.72;4878478;29;19908;-83
2021/04/22 04:33:34;;;;;;;;;;;;;;;1.79;100.00;99677.28;4892518;29;19939;-83
2021/04/22 04:35:59;;;;;;;;;;;;;;;1.80;100.00;99671.38;4891298;29;20305;-83
2021/04/22 04:38:26;;;;;;;;;;;;;;;1.96;100.00;99667.38;4890965;29;20727;-84
2021/04/22 04:40:51;;;;;;;;;;;;;;;2.21;100.00;99662.59;4889662;29;19926;-84
2021/04/22 04:43:17;;;;;;;;;;;;;;;2.31;100.00;99669.50;4889114;29;19919;-84
2021/04/22 04:45:42;;;;;;;;;;;;;;;2.26;100.00;99673.69;4890076;29;19965;-83
2021/04/22 04:48:08;;;;;;;;;;;;;;;2.26;100.00;99676.22;4873848;29;19919;-83
2021/04/22 04:50:33;;;;;;;;;;;;;;;2.36;100.00;99684.81;4920580;29;19926;-83
2021/04/22 04:52:58;;;;;;;;;;;;;;;2.42;100.00;99675.56;4888411;29;19927;-84
2021/04/22 04:55:24;;;;;;;;;;;;;;;2.39;100.00;99679.75;4904286;29;19927;-83
2021/04/22 04:57:49;;;;;;;;;;;;;;;2.28;100.00;99688.13;4915538;29;19922;-83
2021/04/22 05:00:17;;;;;;;;;;;;;;;2.35;100.00;99689.03;4891851;29;20000;-83
2021/04/22 05:02:42;;;;;;;;;;;;;;;2.55;100.00;99688.41;4876491;29;19934;-82
2021/04/22 05:05:08;;;;;;;;;;;;;;;2.44;100.00;99686.63;4886322;29;19923;-82
2021/04/22 05:07:33;;;;;;;;;;;;;;;2.57;100.00;99689.28;4902681;29;19927;-83
2021/04/22 05:09:58;;;;;;;;;;;;;;;2.44;100.00;99694.25;4904418;29;19924;-83
2021/04/22 05:12:24;;;;;;;;;;;;;;;2.48;100.00;99703.59;4874667;29;19930;-83
2021/04/22 05:14:50;;;;;;;;;;;;;;;2.51;100.00;99700.25;4885230;29;19923;-83
2021/04/22 05:17:15;;;;;;;;;;;;;;;2.56;100.00;99701.16;4872049;29;19930;-83
2021/04/22 05:19:41;;;;;;;;;;;;;;;2.65;100.00;99698.72;4876107;29;19937;-84
2021/04/22 05:22:06;;;;;;;;;;;;;;;2.61;100.00;99707.13;4905775;29;19915;-84
2021/04/22 05:24:32;;;;;;;;;;;;;;;2.55;100.00;99711.28;4904188;29;19919;-84
2021/04/22 05:26:57;;;;;;;;;;;;;;;2.61;100.00;99712.22;4889651;29;19995;-84
2021/04/22 05:29:23;;;;;;;;;;;;;;;2.60;100.00;99714.72;4918219;29;20506;-84
2021/04/22 05:31:48;;;;;;;;;;;;;;;2.63;100.00;99718.19;4874990;29;19919;-83
2021/04/22 05:34:13;;;;;;;;;;;;;;;2.66;100.00;99725.84;4883735;29;19931;-84
2021/04/22 05:36:39;;;;;;;;;;;;;;;2.68;100.00;99729.25;4873198;29;19915;-83
2021/04/22 05:39:05;;;;;;;;;;;;;;;2.69;100.00;99730.09;4871203;29;19954;-84
2021/04/22 05:41:30;;;;;;;;;;;;;;;2.59;100.00;99733.38;4888684;29;19915;-83
2021/04/22 05:43:55;;;;;;;;;;;;;;;2.80;100.00;99726.00;4887010;29;19915;-84
2021/04/22 05:46:21;;;;;;;;;;;;;;;2.80;100.00;99723.44;4874177;29;19918;-84
2021/04/22 05:48:46;;;;;;;;;;;;;;;2.81;100.00;99735.34;4874974;29;20042;-84
2021/04/22 05:51:11;;;;;;;;;;;;;;;2.92;100.00;99735.47;4889040;29;20312;-84
2021/04/22 05:53:37;;;;;;;;;;;;;;;2.96;100.00;99738.88;4878301;29;20372;-84
2021/04/22 05:56:02;;;;;;;;;;;;;;;2.96;100.00;99747.34;4906517;29;19923;-84
2021/04/22 05:58:28;;;;;;;;;;;;;;;3.21;100.00;99745.91;4892526;29;20329;-83
2021/04/22 06:00:53;;;;;;;;;;;;;;;3.20;100.00;99744.22;4907346;29;19919;-83
2021/04/22 06:03:19;;;;;;;;;;;;;;;3.30;100.00;99743.47;4890891;29;19941;-84
2021/04/22 06:05:44;;;;;;;;;;;;;;;3.31;100.00;99747.72;4890123;29;20433;-84
2021/04/22 06:08:10;;;;;;;;;;;;;;;3.31;100.00;99742.63;4877297;29;19919;-83
2021/04/22 06:10:37;;;;;;;;;;;;;;;3.25;100.00;99747.66;4891790;29;19915;-83
2021/04/22 06:13:03;;;;;;;;;;;;;;;3.43;100.00;99752.06;4891223;29;19938;-84
2021/04/22 06:15:28;;;;;;;;;;;;;;;3.44;100.00;99752.91;4888133;29;19919;-84
2021/04/22 06:17:54;;;;;;;;;;;;;;;3.40;100.00;99752.06;4889762;29;20345;-83
2021/04/22 06:20:20;;;;;;;;;;;;;;;3.39;100.00;99759.66;4903648;29;19926;-85
2021/04/22 06:22:46;;;;;;;;;;;;;;;3.45;100.00;99759.75;4876318;29;19918;-84
2021/04/22 06:25:12;;;;;;;;;;;;;;;3.65;100.00;99753.13;4918545;29;20280;-85
2021/04/22 06:27:37;;;;;;;;;;;;;;;3.69;100.00;99754.81;4888809;29;19919;-85
2021/04/22 06:30:03;;;;;;;;;;;;;;;3.65;100.00;99764.97;4888097;29;19947;-84
2021/04/22 06:32:28;;;;;;;;;;;;;;;3.63;100.00;99752.25;4902650;29;19957;-84
2021/04/22 06:34:54;;;;;;;;;;;;;;;3.65;100.00;99768.41;4894437;29;20209;-84
2021/04/22 06:37:19;;;;;;;;;;;;;;;3.76;100.00;99761.69;4903285;29;19974;-84
2021/04/22 06:39:45;;;;;;;;;;;;;;;4.00;100.00;99772.91;4876381;29;21050;-83
2021/04/22 06:42:10;;;;;;;;;;;;;;;4.06;100.00;99770.41;4874182;29;19923;-84
2021/04/22 06:44:36;;;;;;;;;;;;;;;4.03;100.00;99783.09;4887790;29;19972;-84
2021/04/22 06:47:02;;;;;;;;;;;;;;;4.11;98.58;99778.09;4903489;29;19918;-84
2021/04/22 06:49:27;;;;;;;;;;;;;;;4.31;98.40;99780.72;4912410;29;19915;-84
2021/04/22 06:51:53;;;;;;;;;;;;;;;4.20;97.14;99783.25;4887417;29;20311;-84
2021/04/22 06:54:18;;;;;;;;;;;;;;;4.21;95.54;99779.00;4903495;29;20508;-84
2021/04/22 06:56:44;;;;;;;;;;;;;;;4.51;97.42;99781.69;4889165;29;19941;-83
2021/04/22 06:59:09;;;;;;;;;;;;;;;4.59;99.01;99782.59;4905749;29;19935;-83
2021/04/22 07:01:35;;;;;;;;;;;;;;;4.63;99.02;99792.81;4886895;29;19915;-84
2021/04/22 07:04:00;;;;;;;;;;;;;;;4.81;95.96;99792.88;4887260;29;20531;-84
2021/04/22 07:06:26;;;;;;;;;;;;;;;4.90;95.32;99795.47;4883699;29;19986;-83
2021/04/22 07:08:51;;;;;;;;;;;;;;;4.80;97.11;99792.03;4905496;29;19915;-84
2021/04/22 07:11:17;;;;;;;;;;;;;;;4.89;95.09;99793.78;4896687;29;20385;-83
2021/04/22 07:13:42;;;;;;;;;;;;;;;4.53;94.44;99802.97;4873170;29;19943;-84
2021/04/22 07:16:07;;;;;;;;;;;;;;;4.66;94.99;99803.91;4876676;29;20381;-83
2021/04/22 07:18:33;;;;;;;;;;;;;;;4.84;92.76;99808.22;4873683;29;19919;-83
2021/04/22 07:20:59;;;;;;;;;;;;;;;4.78;90.39;99803.09;4887520;29;19938;-83
2021/04/22 07:23:24;;;;;;;;;;;;;;;4.59;87.89;99805.56;4873056;29;19916;-84
2021/04/22 07:25:50;;;;;;;;;;;;;;;4.92;89.62;99811.66;4885504;29;20280;-83
2021/04/22 07:28:16;;;;;;;;;;;;;;;5.15;88.05;99805.78;4909175;29;19919;-84
2021/04/22 07:30:42;;;;;;;;;;;;;;;4.93;87.53;99808.28;4888003;29;19942;-83
2021/04/22 07:33:08;;;;;;;;;;;;;;;4.85;88.05;99809.09;4887046;29;19915;-84
2021/04/22 07:35:34;;;;;;;;;;;;;;;4.99;88.75;99808.28;4887764;29;20400;-83
2021/04/22 07:37:59;;;;;;;;;;;;;;;4.91;90.30;99812.50;4902755;29;19927;-83
2021/04/22 07:40:25;;;;;;;;;;;;;;;5.31;91.89;99810.06;4887555;29;19922;-83
2021/04/22 07:42:51;;;;;;;;;;;;;;;5.05;91.19;99819.38;4873810;29;19919;-83
2021/04/22 07:45:18;;;;;;;;;;;;;;;4.99;88.70;99813.38;4871952;29;20532;-83
2021/04/22 07:47:43;;;;;;;;;;;;;;;5.03;92.58;99812.53;4905555;29;19963;-83
2021/04/22 07:50:10;;;;;;;;;;;;;;;5.01;89.72;99816.78;4874862;29;19927;-83
2021/04/22 07:52:35;;;;;;;;;;;;;;;5.23;90.29;99821.97;4875900;29;19982;-84
2021/04/22 07:55:01;;;;;;;;;;;;;;;5.43;87.70;99812.66;4888781;29;19954;-83
2021/04/22 07:57:26;;;;;;;;;;;;;;;5.12;84.31;99827.03;4902102;29;19961;-83
2021/04/22 07:59:52;;;;;;;;;;;;;;;5.38;82.59;99826.25;4887245;29;19915;-84
2021/04/22 08:02:18;;;;;;;;;;;;;;;5.98;83.11;99823.81;4890952;29;19919;-83
2021/04/22 08:04:44;;;;;;;;;;;;;;;5.60;82.49;99829.72;4905084;29;19930;-83
2021/04/22 08:07:10;;;;;;;;;;;;;;;5.96;85.94;99828.94;4878923;29;19926;-84
2021/04/22 08:09:36;;;;;;;;;;;;;;;6.63;83.46;99825.41;4898295;29;19916;-84
2021/04/22 08:12:05;;;;;;;;;;;;;;;6.07;81.61;99834.06;4907917;29;20005;-83
2021/04/22 08:14:30;;;;;;;;;;;;;;;5.32;86.29;99834.78;4908081;29;19926;-83
2021/04/22 08:16:56;;;;;;;;;;;;;;;5.56;86.20;99841.63;4906441;29;20280;-82
2021/04/22 08:19:23;;;;;;;;;;;;;;;5.22;84.92;99838.13;4912450;29;20277;-82
2021/04/22 08:21:49;;;;;;;;;;;;;;;5.20;80.38;99833.03;4908728;29;20361;-83
2021/04/22 08:24:14;;;;;;;;;;;;;;;5.32;78.72;99836.47;4908034;29;19922;-83
2021/04/22 08:26:39;;;;;;;;;;;;;;;5.53;76.51;99831.41;4892449;29;19943;-84
2021/04/22 08:29:05;;;;;;;;;;;;;;;6.40;73.50;99829.75;4884610;29;20617;-83
2021/04/22 08:31:31;;;;;;;;;;;;;;;6.62;76.98;99833.97;4905791;29;19925;-83
2021/04/22 08:33:58;;;;;;;;;;;;;;;5.70;77.52;99833.97;4896441;29;19919;-82
2021/04/22 08:36:24;;;;;;;;;;;;;;;5.61;79.28;99841.63;4889956;29;19923;-82
2021/04/22 08:38:49;;;;;;;;;;;;;;;5.54;74.88;99842.47;4894364;29;19915;-83
2021/04/22 08:41:15;;;;;;;;;;;;;;;5.79;71.35;99839.13;4889923;29;19915;-83
2021/04/22 08:43:41;;;;;;;;;;;;;;;6.04;71.27;99849.38;4880874;29;20292;-83
2021/04/22 08:46:07;;;;;;;;;;;;;;;6.88;64.63;99845.81;4893886;29;19919;-82
2021/04/22 08:48:33;;;;;;;;;;;;;;;6.60;69.83;99843.34;4908304;29;19923;-83
2021/04/22 08:50:58;;;;;;;;;;;;;;;6.37;71.70;99845.09;4894677;29;19923;-83
2021/04/22 08:53:25;;;;;;;;;;;;;;;6.37;69.74;99840.84;4900725;29;19995;-83
2021/04/22 08:55:50;;;;;;;;;;;;;;;5.64;70.60;99859.53;4881916;29;19991;-82
2021/04/22 08:58:17;;;;;;;;;;;;;;;5.91;76.31;99847.63;4890698;29;20526;-83
2021/04/22 09:00:52;;;;;;;;;;;;;;;5.78;74.41;99857.84;4925832;29;19921;-83
2021/04/22 09:03:18;;;;;;;;;;;;;;;5.98;73.52;99857.06;4907074;29;20277;-82
2021/04/22 09:05:44;;;;;;;;;;;;;;;6.30;73.12;99851.94;4894262;29;19991;-82
2021/04/22 09:08:09;;;;;;;;;;;;;;;7.42;71.18;99851.56;4888283;29;20439;-83
2021/04/22 09:10:36;;;;;;;;;;;;;;;6.52;69.41;99846.78;4907824;29;19941;-83
2021/04/22 09:13:03;;;;;;;;;;;;;;;6.88;71.65;99856.06;4890778;29;19919;-83
2021/04/22 09:15:28;;;;;;;;;;;;;;;6.24;72.98;99857.03;4896575;29;19938;-83
2021/04/22 09:17:55;;;;;;;;;;;;;;;6.70;74.37;99847.59;4892005;29;19923;-83
2021/04/22 09:20:25;;;;;;;;;;;;;;;6.62;74.70;99854.44;4890848;29;19915;-82
2021/04/22 09:22:50;;;;;;;;;;;;;;;6.36;72.88;99851.91;4892460;29;19915;-83
2021/04/22 09:25:22;;;;;;;;;;;;;;;6.30;72.14;99861.31;4890994;29;20446;-81
2021/04/22 09:27:48;;;;;;;;;;;;;;;6.69;68.84;99856.13;4906186;29;19926;-82
2021/04/22 09:30:14;;;;;;;;;;;;;;;6.70;70.06;99856.97;4879653;29;20368;-82
2021/04/22 09:32:40;;;;;;;;;;;;;;;7.27;72.20;99854.19;4922101;29;19922;-82
2021/04/22 09:35:09;;;;;;;;;;;;;;;7.59;63.74;99855.75;4907925;29;19923;-82
2021/04/22 09:37:38;;;;;;;;;;;;;;;7.75;64.56;99853.09;4905519;29;19961;-82
2021/04/22 09:40:16;;;;;;;;;;;;;;;7.50;68.21;99857.50;4906550;29;19918;-82
2021/04/22 09:42:41;;;;;;;;;;;;;;;8.77;69.06;99847.91;4906958;29;20273;-82
2021/04/22 09:45:07;;;;;;;;;;;;;;;8.19;66.32;99848.47;4893893;29;19966;-83
2021/04/22 09:47:33;;;;;;;;;;;;;;;8.67;60.56;99853.19;4895562;29;19974;-82
2021/04/22 09:50:00;;;;;;;;;;;;;;;8.71;62.99;99858.28;4891128;29;19962;-82
2021/04/22 09:52:29;;;;;;;;;;;;;;;7.95;62.33;99849.50;4890237;29;20381;-82
2021/04/22 09:54:56;;;;;;;;;;;;;;;8.14;65.76;99848.50;4903854;29;19927;-82
2021/04/22 09:57:29;;;;;;;;;;;;;;;7.41;71.12;99856.69;4891729;29;19919;-82
2021/04/22 09:59:54;;;;;;;;;;;;;;;7.03;68.34;99861.16;4893163;29;20036;-83
2021/04/22 10:02:20;;;;;;;;;;;;;;;7.08;66.60;99853.44;4890088;29;20420;-82
2021/04/22 10:04:46;;;;;;;;;;;;;;;8.14;64.48;99852.75;4903171;29;20340;-82
2021/04/22 10:07:22;;;;;;;;;;;;;;;9.36;62.81;99847.22;4894415;29;20926;-82
2021/04/22 10:09:48;;;;;;;;;;;;;;;8.35;59.76;99855.16;4893120;29;19926;-82
2021/04/22 10:12:24;;;;;;;;;;;;;;;7.88;65.44;99847.84;4891071;29;19923;-82
2021/04/22 10:14:49;;;;;;;;;;;;;;;7.31;69.34;99850.78;4905012;29;19926;-83
2021/04/22 10:17:15;;;;;;;;;;;;;;;7.05;67.38;99856.88;4891462;29;19915;-81
2021/04/22 10:19:41;;;;;;;;;;;;;;;6.85;65.42;99844.13;4904764;29;19942;-82
2021/04/22 10:22:06;;;;;;;;;;;;;;;8.02;69.22;99846.03;4875526;29;19919;-82
2021/04/22 10:24:33;;;;;;;;;;;;;;;9.24;57.44;99842.22;4886151;29;20533;-82
2021/04/22 10:27:02;;;;;;;;;;;;;;;8.40;59.69;99856.84;4875675;29;20006;-82
2021/04/22 10:29:28;;;;;;;;;;;;;;;7.40;66.15;99863.53;4872314;29;19965;-82
2021/04/22 10:31:57;;;;;;;;;;;;;;;7.31;65.80;99850.78;4902955;29;19962;-82
2021/04/22 10:34:23;;;;;;;;;;;;;;;7.44;65.27;99852.41;4878343;29;19925;-82
2021/04/22 10:36:48;;;;;;;;;;;;;;;8.79;61.61;99838.47;4874801;29;19918;-82
2021/04/22 10:39:15;;;;;;;;;;;;;;;8.89;56.79;99846.06;4875961;29;20384;-83
2021/04/22 10:41:41;;;;;;;;;;;;;;;8.67;56.05;99853.19;4889135;29;19922;-82
2021/04/22 10:44:07;;;;;;;;;;;;;;;9.41;54.05;99842.84;4887391;29;19923;-82
2021/04/22 10:46:36;;;;;;;;;;;;;;;9.50;61.10;99840.16;4875831;29;19918;-82
2021/04/22 10:49:02;;;;;;;;;;;;;;;8.23;60.61;99857.81;4888233;29;19922;-82
2021/04/22 10:51:28;;;;;;;;;;;;;;;9.17;59.22;99846.59;4920807;29;19969;-82
2021/04/22 10:53:54;;;;;;;;;;;;;;;9.21;60.67;99843.97;4901042;29;19946;-82
2021/04/22 10:56:26;;;;;;;;;;;;;;;9.12;52.44;99838.97;4874537;29;19933;-82
2021/04/22 10:58:52;;;;;;;;;;;;;;;9.67;56.97;99831.34;4900723;29;19946;-82
2021/04/22 11:01:17;;;;;;;;;;;;;;;9.43;63.09;99843.69;4888187;29;19966;-82
2021/04/22 11:03:46;;;;;;;;;;;;;;;9.78;58.12;99844.88;4877242;29;19925;-83
2021/04/22 11:06:14;;;;;;;;;;;;;;;8.41;56.35;99853.44;4901162;29;20362;-82
2021/04/22 11:08:40;;;;;;;;;;;;;;;9.06;60.19;99862.16;4902903;29;19967;-82
2021/04/22 11:11:35;;;;;;;;;;;;;;;8.56;60.04;99854.13;4919760;29;20289;-82
2021/04/22 11:14:07;;;;;;;;;;;;;;;7.52;66.84;99854.91;4906053;29;19926;-82
2021/04/22 11:16:33;;;;;;;;;;;;;;;7.60;68.19;99858.31;4920664;29;20328;-81
2021/04/22 11:18:58;;;;;;;;;;;;;;;9.37;63.05;99843.75;4902937;29;19919;-82
2021/04/22 11:21:36;;;;;;;;;;;;;;;9.27;57.63;99843.03;4889097;29;20503;-82
2021/04/22 11:24:03;;;;;;;;;;;;;;;10.88;56.17;99843.00;4885615;29;20415;-82
2021/04/22 11:26:31;;;;;;;;;;;;;;;9.41;54.84;99850.56;4886321;29;19919;-82
2021/04/22 11:28:57;;;;;;;;;;;;;;;8.76;59.96;99851.34;4886869;29;20014;-82
2021/04/22 11:31:23;;;;;;;;;;;;;;;8.82;56.84;99858.13;4874335;29;19918;-82
2021/04/22 11:33:49;;;;;;;;;;;;;;;9.43;58.60;99849.66;4870082;29;19914;-82
2021/04/22 11:36:14;;;;;;;;;;;;;;;9.33;56.64;99860.13;4901437;29;19997;-82
2021/04/22 11:38:50;;;;;;;;;;;;;;;9.20;57.23;99857.69;4913788;29;19919;-81
2021/04/22 11:41:15;;;;;;;;;;;;;;;8.70;58.37;99869.38;4905600;29;19914;-82
2021/04/22 11:43:40;;;;;;;;;;;;;;;9.51;55.37;99852.16;4892321;29;19915;-79
2021/04/22 11:46:06;;;;;;;;;;;;;;;8.91;57.44;99855.47;4889192;29;19990;-85
2021/04/22 11:48:38;;;;;;;;;;;;;;;8.83;59.72;99853.88;4903141;29;19919;-81
2021/04/22 11:51:04;;;;;;;;;;;;;;;8.97;59.74;99857.13;4892490;29;20070;-83
2021/04/22 11:53:36;;;;;;;;;;;;;;;9.01;59.58;99856.22;4890562;29;19974;-83
2021/04/22 11:56:02;;;;;;;;;;;;;;;9.56;60.78;99845.22;4867150;29;19927;-80
2021/04/22 11:58:28;;;;;;;;;;;;;;;9.88;57.34;99840.47;4903936;29;19942;-82
2021/04/22 12:00:55;;;;;;;;;;;;;;;10.01;54.49;99842.81;4908330;29;19930;-80
2021/04/22 12:03:25;;;;;;;;;;;;;;;9.22;59.81;99839.69;4887866;29;20406;-80
2021/04/22 12:05:51;;;;;;;;;;;;;;;8.33;61.16;99854.31;4879566;29;19919;-82
2021/04/22 12:08:17;;;;;;;;;;;;;;;9.24;62.66;99847.34;4906065;29;19946;-82
2021/04/22 12:10:48;;;;;;;;;;;;;;;9.37;59.48;99857.47;4893894;29;19954;-81
2021/04/22 12:13:16;;;;;;;;;;;;;;;8.83;58.18;99862.41;4903762;29;19930;-82
2021/04/22 12:15:45;;;;;;;;;;;;;;;9.27;63.31;99857.63;4920441;29;19954;-82
2021/04/22 12:18:11;;;;;;;;;;;;;;;9.31;66.55;99849.84;4896145;29;19923;-82
2021/04/22 12:20:37;;;;;;;;;;;;;;;10.04;56.50;99853.06;4876646;29;19954;-81
2021/04/22 12:23:03;;;;;;;;;;;;;;;10.25;53.80;99858.72;4878805;29;19961;-80
2021/04/22 12:25:28;;;;;;;;;;;;;;;10.24;53.57;99859.56;4875932;29;19950;-82
2021/04/22 12:27:54;;;;;;;;;;;;;;;9.66;55.53;99863.06;4894030;29;19955;-80
2021/04/22 12:30:25;;;;;;;;;;;;;;;9.25;57.59;99854.22;4905283;29;19923;-81
2021/04/22 12:32:52;;;;;;;;;;;;;;;8.89;53.16;99856.34;4903250;29;20339;-81
2021/04/22 12:35:18;;;;;;;;;;;;;;;9.86;54.53;99848.19;4888096;29;20935;-84
2021/04/22 12:37:44;;;;;;;;;;;;;;;10.03;55.63;99848.78;4876985;29;19926;-82
2021/04/22 12:40:11;;;;;;;;;;;;;;;9.81;54.92;99852.56;4904410;29;20018;-83
2021/04/22 12:42:36;;;;;;;;;;;;;;;10.77;57.00;99844.94;4904885;29;19934;-79
2021/04/22 12:45:08;;;;;;;;;;;;;;;10.31;60.06;99848.34;4905298;29;19919;-81
2021/04/22 12:47:36;;;;;;;;;;;;;;;10.40;61.89;99845.63;4919585;29;19915;-79
2021/04/22 12:50:03;;;;;;;;;;;;;;;10.26;59.95;99850.09;4949890;23;19935;-92